sensor_id;sensor_type;location;lat;lon;timestamp;P1;durP1;ratioP1;P2;durP2;ratioP2
75823;SDS011;64457;51.976;9.834;2023-05-10T00:02:12;16.87;;;3.80;;
75823;SDS011;64457;51.976;9.834;2023-05-10T00:04:40;8.80;;;3.57;;
75823;SDS011;64457;51.976;9.834;2023-05-10T00:07:08;10.73;;;3.50;;
75823;SDS011;64457;51.976;9.834;2023-05-10T00:09:35;11.30;;;3.97;;
75823;SDS011;64457;51.976;9.834;2023-05-10T00:12:03;10.00;;;3.60;;
75823;SDS011;64457;51.976;9.834;2023-05-10T00:14:30;15.17;;;4.13;;
75823;SDS011;64457;51.976;9.834;2023-05-10T00:16:58;11.67;;;3.80;;
75823;SDS011;64457;51.976;9.834;2023-05-10T00:19:28;10.40;;;3.73;;
75823;SDS011;64457;51.976;9.834;2023-05-10T00:21:56;11.43;;;3.63;;
75823;SDS011;64457;51.976;9.834;2023-05-10T00:24:23;11.27;;;4.07;;
75823;SDS011;64457;51.976;9.834;2023-05-10T00:26:50;11.40;;;3.50;;
75823;SDS011;64457;51.976;9.834;2023-05-10T00:29:18;10.03;;;3.60;;
75823;SDS011;64457;51.976;9.834;2023-05-10T00:31:45;14.23;;;4.60;;
75823;SDS011;64457;51.976;9.834;2023-05-10T00:34:12;18.80;;;3.83;;
75823;SDS011;64457;51.976;9.834;2023-05-10T00:36:40;8.50;;;3.50;;
75823;SDS011;64457;51.976;9.834;2023-05-10T00:39:08;12.40;;;3.50;;
75823;SDS011;64457;51.976;9.834;2023-05-10T00:41:36;15.30;;;3.93;;
75823;SDS011;64457;51.976;9.834;2023-05-10T00:44:03;11.50;;;3.53;;
75823;SDS011;64457;51.976;9.834;2023-05-10T00:46:30;9.90;;;3.80;;
75823;SDS011;64457;51.976;9.834;2023-05-10T00:48:58;11.10;;;3.80;;
75823;SDS011;64457;51.976;9.834;2023-05-10T00:51:27;10.17;;;3.23;;
75823;SDS011;64457;51.976;9.834;2023-05-10T00:53:54;9.70;;;3.27;;
75823;SDS011;64457;51.976;9.834;2023-05-10T00:56:23;9.47;;;3.50;;
75823;SDS011;64457;51.976;9.834;2023-05-10T00:58:52;10.97;;;4.00;;
75823;SDS011;64457;51.976;9.834;2023-05-10T01:01:19;9.53;;;3.73;;
75823;SDS011;64457;51.976;9.834;2023-05-10T01:03:47;11.47;;;3.83;;
75823;SDS011;64457;51.976;9.834;2023-05-10T01:06:14;9.90;;;3.73;;
75823;SDS011;64457;51.976;9.834;2023-05-10T01:08:42;8.67;;;3.40;;
75823;SDS011;64457;51.976;9.834;2023-05-10T01:11:09;9.70;;;4.17;;
75823;SDS011;64457;51.976;9.834;2023-05-10T01:13:38;10.40;;;3.97;;
75823;SDS011;64457;51.976;9.834;2023-05-10T01:16:07;14.30;;;4.17;;
75823;SDS011;64457;51.976;9.834;2023-05-10T01:18:37;9.27;;;3.57;;
75823;SDS011;64457;51.976;9.834;2023-05-10T01:21:16;10.10;;;3.30;;
75823;SDS011;64457;51.976;9.834;2023-05-10T01:27:17;14.17;;;3.57;;
75823;SDS011;64457;51.976;9.834;2023-05-10T01:30:33;9.27;;;3.80;;
75823;SDS011;64457;51.976;9.834;2023-05-10T01:33:27;10.50;;;4.00;;
75823;SDS011;64457;51.976;9.834;2023-05-10T01:36:03;15.77;;;3.80;;
75823;SDS011;64457;51.976;9.834;2023-05-10T01:38:38;11.23;;;3.67;;
75823;SDS011;64457;51.976;9.834;2023-05-10T01:41:13;11.63;;;3.97;;
75823;SDS011;64457;51.976;9.834;2023-05-10T01:43:46;10.60;;;4.00;;
75823;SDS011;64457;51.976;9.834;2023-05-10T01:46:24;8.40;;;3.70;;
75823;SDS011;64457;51.976;9.834;2023-05-10T01:49:01;10.10;;;3.90;;
75823;SDS011;64457;51.976;9.834;2023-05-10T01:51:35;10.30;;;3.50;;
75823;SDS011;64457;51.976;9.834;2023-05-10T01:54:07;11.23;;;4.20;;
75823;SDS011;64457;51.976;9.834;2023-05-10T01:56:37;10.53;;;3.90;;
75823;SDS011;64457;51.976;9.834;2023-05-10T01:59:08;8.33;;;3.57;;
75823;SDS011;64457;51.976;9.834;2023-05-10T02:01:42;8.40;;;3.57;;
75823;SDS011;64457;51.976;9.834;2023-05-10T02:04:13;13.53;;;4.00;;
75823;SDS011;64457;51.976;9.834;2023-05-10T02:06:43;13.67;;;4.10;;
75823;SDS011;64457;51.976;9.834;2023-05-10T02:09:13;10.30;;;3.60;;
75823;SDS011;64457;51.976;9.834;2023-05-10T02:11:41;9.90;;;4.10;;
75823;SDS011;64457;51.976;9.834;2023-05-10T02:14:10;9.27;;;3.93;;
75823;SDS011;64457;51.976;9.834;2023-05-10T02:16:38;9.23;;;3.80;;
75823;SDS011;64457;51.976;9.834;2023-05-10T02:19:06;12.47;;;4.33;;
75823;SDS011;64457;51.976;9.834;2023-05-10T02:21:36;9.80;;;3.90;;
75823;SDS011;64457;51.976;9.834;2023-05-10T02:24:06;9.77;;;3.67;;
75823;SDS011;64457;51.976;9.834;2023-05-10T02:26:35;8.30;;;3.80;;
75823;SDS011;64457;51.976;9.834;2023-05-10T02:29:04;10.90;;;3.90;;
75823;SDS011;64457;51.976;9.834;2023-05-10T02:31:33;11.00;;;3.73;;
75823;SDS011;64457;51.976;9.834;2023-05-10T02:34:03;10.17;;;3.70;;
75823;SDS011;64457;51.976;9.834;2023-05-10T02:36:32;9.10;;;3.53;;
75823;SDS011;64457;51.976;9.834;2023-05-10T02:39:01;9.00;;;3.40;;
75823;SDS011;64457;51.976;9.834;2023-05-10T02:41:30;9.43;;;3.63;;
75823;SDS011;64457;51.976;9.834;2023-05-10T02:43:59;10.90;;;4.13;;
75823;SDS011;64457;51.976;9.834;2023-05-10T02:46:29;13.70;;;3.93;;
75823;SDS011;64457;51.976;9.834;2023-05-10T02:48:56;7.53;;;3.10;;
75823;SDS011;64457;51.976;9.834;2023-05-10T02:51:24;8.90;;;3.53;;
75823;SDS011;64457;51.976;9.834;2023-05-10T02:53:54;10.20;;;3.50;;
75823;SDS011;64457;51.976;9.834;2023-05-10T02:56:27;8.43;;;3.30;;
75823;SDS011;64457;51.976;9.834;2023-05-10T02:58:58;13.07;;;3.87;;
75823;SDS011;64457;51.976;9.834;2023-05-10T03:01:25;9.27;;;4.10;;
75823;SDS011;64457;51.976;9.834;2023-05-10T03:03:52;8.73;;;3.87;;
75823;SDS011;64457;51.976;9.834;2023-05-10T03:06:20;8.57;;;3.50;;
75823;SDS011;64457;51.976;9.834;2023-05-10T03:08:47;9.43;;;3.80;;
75823;SDS011;64457;51.976;9.834;2023-05-10T03:11:17;9.70;;;3.87;;
75823;SDS011;64457;51.976;9.834;2023-05-10T03:14:02;9.80;;;4.10;;
75823;SDS011;64457;51.976;9.834;2023-05-10T03:16:41;8.20;;;3.80;;
75823;SDS011;64457;51.976;9.834;2023-05-10T03:19:15;10.90;;;3.70;;
75823;SDS011;64457;51.976;9.834;2023-05-10T03:21:50;14.63;;;4.10;;
75823;SDS011;64457;51.976;9.834;2023-05-10T03:24:20;10.97;;;3.90;;
75823;SDS011;64457;51.976;9.834;2023-05-10T03:26:54;10.47;;;3.73;;
75823;SDS011;64457;51.976;9.834;2023-05-10T03:29:27;10.60;;;4.17;;
75823;SDS011;64457;51.976;9.834;2023-05-10T03:31:57;10.07;;;4.10;;
75823;SDS011;64457;51.976;9.834;2023-05-10T03:34:24;9.87;;;4.40;;
75823;SDS011;64457;51.976;9.834;2023-05-10T03:36:52;9.80;;;4.10;;
75823;SDS011;64457;51.976;9.834;2023-05-10T03:39:19;12.30;;;4.17;;
75823;SDS011;64457;51.976;9.834;2023-05-10T03:41:47;9.30;;;4.33;;
75823;SDS011;64457;51.976;9.834;2023-05-10T03:44:16;9.00;;;3.57;;
75823;SDS011;64457;51.976;9.834;2023-05-10T03:46:43;11.37;;;3.93;;
75823;SDS011;64457;51.976;9.834;2023-05-10T03:49:10;14.10;;;4.00;;
75823;SDS011;64457;51.976;9.834;2023-05-10T03:51:38;13.13;;;4.20;;
75823;SDS011;64457;51.976;9.834;2023-05-10T03:54:05;9.10;;;4.20;;
75823;SDS011;64457;51.976;9.834;2023-05-10T03:56:32;8.30;;;3.50;;
75823;SDS011;64457;51.976;9.834;2023-05-10T03:59:00;10.13;;;3.67;;
75823;SDS011;64457;51.976;9.834;2023-05-10T04:01:33;13.00;;;4.63;;
75823;SDS011;64457;51.976;9.834;2023-05-10T04:04:01;11.70;;;4.40;;
75823;SDS011;64457;51.976;9.834;2023-05-10T04:06:28;12.10;;;4.53;;
75823;SDS011;64457;51.976;9.834;2023-05-10T04:08:56;11.20;;;4.30;;
75823;SDS011;64457;51.976;9.834;2023-05-10T04:11:25;13.67;;;3.87;;
75823;SDS011;64457;51.976;9.834;2023-05-10T04:13:52;13.83;;;4.63;;
75823;SDS011;64457;51.976;9.834;2023-05-10T04:16:19;11.13;;;4.80;;
75823;SDS011;64457;51.976;9.834;2023-05-10T04:18:48;10.23;;;4.43;;
75823;SDS011;64457;51.976;9.834;2023-05-10T04:21:15;9.80;;;4.67;;
75823;SDS011;64457;51.976;9.834;2023-05-10T04:23:42;12.50;;;5.50;;
75823;SDS011;64457;51.976;9.834;2023-05-10T04:26:10;13.70;;;5.40;;
75823;SDS011;64457;51.976;9.834;2023-05-10T04:28:37;11.80;;;5.77;;
75823;SDS011;64457;51.976;9.834;2023-05-10T04:31:05;19.40;;;6.37;;
75823;SDS011;64457;51.976;9.834;2023-05-10T04:33:35;15.03;;;6.20;;
75823;SDS011;64457;51.976;9.834;2023-05-10T04:36:04;12.80;;;6.23;;
75823;SDS011;64457;51.976;9.834;2023-05-10T04:38:32;16.43;;;5.70;;
75823;SDS011;64457;51.976;9.834;2023-05-10T04:41:05;14.07;;;6.20;;
75823;SDS011;64457;51.976;9.834;2023-05-10T04:43:34;13.20;;;6.00;;
75823;SDS011;64457;51.976;9.834;2023-05-10T04:46:02;16.40;;;6.60;;
75823;SDS011;64457;51.976;9.834;2023-05-10T04:48:29;13.00;;;7.07;;
75823;SDS011;64457;51.976;9.834;2023-05-10T04:50:56;11.77;;;6.00;;
75823;SDS011;64457;51.976;9.834;2023-05-10T04:53:25;11.80;;;6.30;;
75823;SDS011;64457;51.976;9.834;2023-05-10T04:55:52;16.03;;;6.47;;
75823;SDS011;64457;51.976;9.834;2023-05-10T04:58:19;14.43;;;6.50;;
75823;SDS011;64457;51.976;9.834;2023-05-10T05:00:47;14.93;;;7.10;;
75823;SDS011;64457;51.976;9.834;2023-05-10T05:03:14;17.17;;;8.57;;
75823;SDS011;64457;51.976;9.834;2023-05-10T05:05:41;14.30;;;7.70;;
75823;SDS011;64457;51.976;9.834;2023-05-10T05:08:09;16.13;;;7.20;;
75823;SDS011;64457;51.976;9.834;2023-05-10T05:10:38;14.90;;;8.23;;
75823;SDS011;64457;51.976;9.834;2023-05-10T05:13:05;14.87;;;7.70;;
75823;SDS011;64457;51.976;9.834;2023-05-10T05:15:32;16.27;;;7.50;;
75823;SDS011;64457;51.976;9.834;2023-05-10T05:18:00;15.33;;;7.50;;
75823;SDS011;64457;51.976;9.834;2023-05-10T05:20:27;19.30;;;8.27;;
75823;SDS011;64457;51.976;9.834;2023-05-10T05:22:58;16.20;;;8.10;;
75823;SDS011;64457;51.976;9.834;2023-05-10T05:25:25;17.67;;;7.80;;
75823;SDS011;64457;51.976;9.834;2023-05-10T05:27:54;15.87;;;7.30;;
75823;SDS011;64457;51.976;9.834;2023-05-10T05:30:21;14.33;;;8.10;;
75823;SDS011;64457;51.976;9.834;2023-05-10T05:32:48;16.37;;;8.20;;
75823;SDS011;64457;51.976;9.834;2023-05-10T05:35:15;14.40;;;8.57;;
75823;SDS011;64457;51.976;9.834;2023-05-10T05:37:43;17.00;;;7.93;;
75823;SDS011;64457;51.976;9.834;2023-05-10T05:40:12;14.73;;;7.80;;
75823;SDS011;64457;51.976;9.834;2023-05-10T05:42:40;14.93;;;7.13;;
75823;SDS011;64457;51.976;9.834;2023-05-10T05:45:09;18.90;;;7.33;;
75823;SDS011;64457;51.976;9.834;2023-05-10T05:47:38;15.50;;;7.83;;
75823;SDS011;64457;51.976;9.834;2023-05-10T05:50:05;13.97;;;7.80;;
75823;SDS011;64457;51.976;9.834;2023-05-10T05:52:33;18.13;;;7.10;;
75823;SDS011;64457;51.976;9.834;2023-05-10T05:55:01;16.43;;;7.10;;
75823;SDS011;64457;51.976;9.834;2023-05-10T05:57:29;17.43;;;7.13;;
75823;SDS011;64457;51.976;9.834;2023-05-10T05:59:56;19.33;;;7.70;;
75823;SDS011;64457;51.976;9.834;2023-05-10T06:02:25;13.93;;;7.20;;
75823;SDS011;64457;51.976;9.834;2023-05-10T06:04:52;14.20;;;7.57;;
75823;SDS011;64457;51.976;9.834;2023-05-10T06:07:19;15.47;;;7.50;;
75823;SDS011;64457;51.976;9.834;2023-05-10T06:09:46;17.80;;;6.70;;
75823;SDS011;64457;51.976;9.834;2023-05-10T06:12:14;14.03;;;6.97;;
75823;SDS011;64457;51.976;9.834;2023-05-10T06:14:41;15.07;;;7.63;;
75823;SDS011;64457;51.976;9.834;2023-05-10T06:17:08;18.17;;;8.23;;
75823;SDS011;64457;51.976;9.834;2023-05-10T06:19:37;17.37;;;6.67;;
75823;SDS011;64457;51.976;9.834;2023-05-10T06:22:04;12.63;;;7.23;;
75823;SDS011;64457;51.976;9.834;2023-05-10T06:24:31;13.10;;;7.43;;
75823;SDS011;64457;51.976;9.834;2023-05-10T06:26:58;14.17;;;7.30;;
75823;SDS011;64457;51.976;9.834;2023-05-10T06:29:27;12.83;;;6.90;;
75823;SDS011;64457;51.976;9.834;2023-05-10T06:31:54;13.80;;;7.80;;
75823;SDS011;64457;51.976;9.834;2023-05-10T06:34:21;13.90;;;7.80;;
75823;SDS011;64457;51.976;9.834;2023-05-10T06:36:50;14.77;;;6.80;;
75823;SDS011;64457;51.976;9.834;2023-05-10T06:39:18;15.43;;;7.80;;
75823;SDS011;64457;51.976;9.834;2023-05-10T06:41:45;16.00;;;7.33;;
75823;SDS011;64457;51.976;9.834;2023-05-10T06:44:12;13.00;;;7.13;;
75823;SDS011;64457;51.976;9.834;2023-05-10T06:46:40;15.67;;;8.17;;
75823;SDS011;64457;51.976;9.834;2023-05-10T06:49:07;15.80;;;7.90;;
75823;SDS011;64457;51.976;9.834;2023-05-10T06:51:34;16.57;;;7.80;;
75823;SDS011;64457;51.976;9.834;2023-05-10T06:54:03;16.47;;;7.47;;
75823;SDS011;64457;51.976;9.834;2023-05-10T06:56:30;13.57;;;7.40;;
75823;SDS011;64457;51.976;9.834;2023-05-10T06:58:58;14.83;;;7.57;;
75823;SDS011;64457;51.976;9.834;2023-05-10T07:01:25;13.93;;;7.30;;
75823;SDS011;64457;51.976;9.834;2023-05-10T07:03:52;13.93;;;7.27;;
75823;SDS011;64457;51.976;9.834;2023-05-10T07:06:20;13.10;;;7.00;;
75823;SDS011;64457;51.976;9.834;2023-05-10T07:08:48;13.20;;;7.10;;
75823;SDS011;64457;51.976;9.834;2023-05-10T07:11:16;17.97;;;7.90;;
75823;SDS011;64457;51.976;9.834;2023-05-10T07:13:43;17.20;;;8.10;;
75823;SDS011;64457;51.976;9.834;2023-05-10T07:16:11;13.10;;;7.10;;
75823;SDS011;64457;51.976;9.834;2023-05-10T07:18:39;14.40;;;8.00;;
75823;SDS011;64457;51.976;9.834;2023-05-10T07:21:06;15.17;;;7.07;;
75823;SDS011;64457;51.976;9.834;2023-05-10T07:23:33;16.40;;;8.50;;
75823;SDS011;64457;51.976;9.834;2023-05-10T07:26:01;14.90;;;7.80;;
75823;SDS011;64457;51.976;9.834;2023-05-10T07:28:29;14.07;;;7.90;;
75823;SDS011;64457;51.976;9.834;2023-05-10T07:30:56;15.13;;;7.60;;
75823;SDS011;64457;51.976;9.834;2023-05-10T07:33:24;15.90;;;7.60;;
75823;SDS011;64457;51.976;9.834;2023-05-10T07:35:51;15.87;;;8.53;;
75823;SDS011;64457;51.976;9.834;2023-05-10T07:38:18;14.40;;;8.00;;
75823;SDS011;64457;51.976;9.834;2023-05-10T07:40:45;15.40;;;7.97;;
75823;SDS011;64457;51.976;9.834;2023-05-10T07:43:12;13.13;;;7.57;;
75823;SDS011;64457;51.976;9.834;2023-05-10T07:45:41;14.00;;;7.77;;
75823;SDS011;64457;51.976;9.834;2023-05-10T07:48:08;17.00;;;7.77;;
75823;SDS011;64457;51.976;9.834;2023-05-10T07:50:35;15.20;;;6.57;;
75823;SDS011;64457;51.976;9.834;2023-05-10T07:53:02;14.43;;;7.17;;
75823;SDS011;64457;51.976;9.834;2023-05-10T07:55:30;12.30;;;6.53;;
75823;SDS011;64457;51.976;9.834;2023-05-10T07:57:57;13.40;;;6.63;;
75823;SDS011;64457;51.976;9.834;2023-05-10T08:00:26;13.47;;;5.77;;
75823;SDS011;64457;51.976;9.834;2023-05-10T08:02:54;12.60;;;6.07;;
75823;SDS011;64457;51.976;9.834;2023-05-10T08:05:21;12.10;;;5.70;;
75823;SDS011;64457;51.976;9.834;2023-05-10T08:07:49;12.20;;;5.73;;
75823;SDS011;64457;51.976;9.834;2023-05-10T08:10:16;11.80;;;5.37;;
75823;SDS011;64457;51.976;9.834;2023-05-10T08:12:43;11.50;;;5.20;;
75823;SDS011;64457;51.976;9.834;2023-05-10T08:15:10;13.30;;;5.37;;
75823;SDS011;64457;51.976;9.834;2023-05-10T08:17:37;8.70;;;2.70;;
75823;SDS011;64457;51.976;9.834;2023-05-10T08:20:06;6.90;;;1.80;;
75823;SDS011;64457;51.976;9.834;2023-05-10T08:22:34;10.47;;;3.03;;
75823;SDS011;64457;51.976;9.834;2023-05-10T08:25:02;6.93;;;1.83;;
75823;SDS011;64457;51.976;9.834;2023-05-10T08:27:30;9.40;;;1.40;;
75823;SDS011;64457;51.976;9.834;2023-05-10T08:29:57;6.73;;;1.80;;
75823;SDS011;64457;51.976;9.834;2023-05-10T08:32:25;7.90;;;2.20;;
75823;SDS011;64457;51.976;9.834;2023-05-10T08:34:52;7.10;;;2.00;;
75823;SDS011;64457;51.976;9.834;2023-05-10T08:37:22;7.97;;;2.10;;
75823;SDS011;64457;51.976;9.834;2023-05-10T08:39:49;7.23;;;1.90;;
75823;SDS011;64457;51.976;9.834;2023-05-10T08:42:18;7.10;;;1.60;;
75823;SDS011;64457;51.976;9.834;2023-05-10T08:44:48;5.60;;;0.90;;
75823;SDS011;64457;51.976;9.834;2023-05-10T08:47:16;6.40;;;1.33;;
75823;SDS011;64457;51.976;9.834;2023-05-10T08:49:44;5.33;;;0.70;;
75823;SDS011;64457;51.976;9.834;2023-05-10T08:52:16;6.03;;;0.80;;
75823;SDS011;64457;51.976;9.834;2023-05-10T08:54:45;5.60;;;0.70;;
75823;SDS011;64457;51.976;9.834;2023-05-10T08:57:13;5.53;;;0.70;;
75823;SDS011;64457;51.976;9.834;2023-05-10T08:59:41;5.47;;;0.60;;
75823;SDS011;64457;51.976;9.834;2023-05-10T09:02:08;5.20;;;0.60;;
75823;SDS011;64457;51.976;9.834;2023-05-10T09:04:38;5.90;;;0.80;;
75823;SDS011;64457;51.976;9.834;2023-05-10T09:07:05;6.40;;;0.90;;
75823;SDS011;64457;51.976;9.834;2023-05-10T09:09:33;8.07;;;0.70;;
75823;SDS011;64457;51.976;9.834;2023-05-10T09:12:02;5.77;;;0.80;;
75823;SDS011;64457;51.976;9.834;2023-05-10T09:14:31;12.90;;;0.80;;
75823;SDS011;64457;51.976;9.834;2023-05-10T09:17:02;6.17;;;1.10;;
75823;SDS011;64457;51.976;9.834;2023-05-10T09:19:29;5.67;;;0.80;;
75823;SDS011;64457;51.976;9.834;2023-05-10T09:21:56;5.87;;;0.80;;
75823;SDS011;64457;51.976;9.834;2023-05-10T09:24:25;5.87;;;1.00;;
75823;SDS011;64457;51.976;9.834;2023-05-10T09:26:53;6.10;;;1.00;;
75823;SDS011;64457;51.976;9.834;2023-05-10T09:29:21;6.57;;;1.07;;
75823;SDS011;64457;51.976;9.834;2023-05-10T09:31:49;6.50;;;0.90;;
75823;SDS011;64457;51.976;9.834;2023-05-10T09:34:21;6.23;;;1.00;;
75823;SDS011;64457;51.976;9.834;2023-05-10T09:36:56;6.20;;;0.80;;
75823;SDS011;64457;51.976;9.834;2023-05-10T09:39:30;7.67;;;1.10;;
75823;SDS011;64457;51.976;9.834;2023-05-10T09:41:58;5.90;;;0.93;;
75823;SDS011;64457;51.976;9.834;2023-05-10T09:44:30;6.73;;;0.90;;
75823;SDS011;64457;51.976;9.834;2023-05-10T09:46:57;5.90;;;1.00;;
75823;SDS011;64457;51.976;9.834;2023-05-10T09:49:25;6.20;;;0.90;;
75823;SDS011;64457;51.976;9.834;2023-05-10T09:52:02;6.80;;;0.90;;
75823;SDS011;64457;51.976;9.834;2023-05-10T09:54:31;6.70;;;0.80;;
75823;SDS011;64457;51.976;9.834;2023-05-10T09:57:00;5.73;;;0.90;;
75823;SDS011;64457;51.976;9.834;2023-05-10T09:59:27;5.80;;;1.00;;
75823;SDS011;64457;51.976;9.834;2023-05-10T10:02:01;5.93;;;1.10;;
75823;SDS011;64457;51.976;9.834;2023-05-10T10:04:29;6.90;;;1.20;;
75823;SDS011;64457;51.976;9.834;2023-05-10T10:06:59;6.50;;;1.00;;
75823;SDS011;64457;51.976;9.834;2023-05-10T10:09:28;6.83;;;0.93;;
75823;SDS011;64457;51.976;9.834;2023-05-10T10:11:56;6.90;;;1.30;;
75823;SDS011;64457;51.976;9.834;2023-05-10T10:14:23;6.53;;;1.17;;
75823;SDS011;64457;51.976;9.834;2023-05-10T10:16:53;5.80;;;0.83;;
75823;SDS011;64457;51.976;9.834;2023-05-10T10:19:21;6.63;;;1.30;;
75823;SDS011;64457;51.976;9.834;2023-05-10T10:21:49;7.43;;;1.33;;
75823;SDS011;64457;51.976;9.834;2023-05-10T10:24:17;7.30;;;1.27;;
75823;SDS011;64457;51.976;9.834;2023-05-10T10:26:44;6.93;;;1.07;;
75823;SDS011;64457;51.976;9.834;2023-05-10T10:29:19;7.83;;;1.40;;
75823;SDS011;64457;51.976;9.834;2023-05-10T10:31:55;6.33;;;1.20;;
75823;SDS011;64457;51.976;9.834;2023-05-10T10:34:32;8.30;;;1.37;;
75823;SDS011;64457;51.976;9.834;2023-05-10T10:37:03;6.47;;;1.20;;
75823;SDS011;64457;51.976;9.834;2023-05-10T10:39:32;8.03;;;1.50;;
75823;SDS011;64457;51.976;9.834;2023-05-10T10:42:01;12.03;;;1.30;;
75823;SDS011;64457;51.976;9.834;2023-05-10T10:44:34;7.70;;;1.50;;
75823;SDS011;64457;51.976;9.834;2023-05-10T10:47:06;7.70;;;1.20;;
75823;SDS011;64457;51.976;9.834;2023-05-10T10:50:04;10.57;;;1.50;;
75823;SDS011;64457;51.976;9.834;2023-05-10T10:52:34;7.90;;;1.50;;
75823;SDS011;64457;51.976;9.834;2023-05-10T10:55:03;6.93;;;1.60;;
75823;SDS011;64457;51.976;9.834;2023-05-10T10:57:42;11.40;;;1.87;;
75823;SDS011;64457;51.976;9.834;2023-05-10T11:00:25;8.60;;;1.70;;
75823;SDS011;64457;51.976;9.834;2023-05-10T11:02:57;8.60;;;2.13;;
75823;SDS011;64457;51.976;9.834;2023-05-10T11:08:12;8.60;;;1.50;;
75823;SDS011;64457;51.976;9.834;2023-05-10T11:10:49;6.80;;;1.50;;
75823;SDS011;64457;51.976;9.834;2023-05-10T11:13:28;8.33;;;1.57;;
75823;SDS011;64457;51.976;9.834;2023-05-10T11:15:58;7.30;;;1.50;;
75823;SDS011;64457;51.976;9.834;2023-05-10T11:18:37;13.43;;;1.83;;
75823;SDS011;64457;51.976;9.834;2023-05-10T11:21:04;6.93;;;1.47;;
75823;SDS011;64457;51.976;9.834;2023-05-10T11:23:47;7.97;;;1.67;;
75823;SDS011;64457;51.976;9.834;2023-05-10T11:26:16;7.10;;;1.40;;
75823;SDS011;64457;51.976;9.834;2023-05-10T11:28:44;7.57;;;1.67;;
75823;SDS011;64457;51.976;9.834;2023-05-10T11:31:13;6.43;;;1.43;;
75823;SDS011;64457;51.976;9.834;2023-05-10T11:33:45;7.33;;;1.33;;
75823;SDS011;64457;51.976;9.834;2023-05-10T11:36:15;8.23;;;1.37;;
75823;SDS011;64457;51.976;9.834;2023-05-10T11:38:44;7.97;;;1.77;;
75823;SDS011;64457;51.976;9.834;2023-05-10T11:41:12;6.50;;;1.53;;
75823;SDS011;64457;51.976;9.834;2023-05-10T11:43:41;7.53;;;1.33;;
75823;SDS011;64457;51.976;9.834;2023-05-10T11:46:09;9.13;;;1.73;;
75823;SDS011;64457;51.976;9.834;2023-05-10T11:48:39;8.73;;;1.37;;
75823;SDS011;64457;51.976;9.834;2023-05-10T11:51:08;12.93;;;1.70;;
75823;SDS011;64457;51.976;9.834;2023-05-10T11:53:37;9.53;;;1.80;;
75823;SDS011;64457;51.976;9.834;2023-05-10T11:56:05;6.90;;;1.50;;
75823;SDS011;64457;51.976;9.834;2023-05-10T11:58:33;7.30;;;1.43;;
75823;SDS011;64457;51.976;9.834;2023-05-10T12:01:01;7.77;;;1.60;;
75823;SDS011;64457;51.976;9.834;2023-05-10T12:03:29;10.47;;;2.40;;
75823;SDS011;64457;51.976;9.834;2023-05-10T12:05:57;16.00;;;3.10;;
75823;SDS011;64457;51.976;9.834;2023-05-10T12:08:28;8.40;;;2.20;;
75823;SDS011;64457;51.976;9.834;2023-05-10T12:11:03;8.27;;;2.33;;
75823;SDS011;64457;51.976;9.834;2023-05-10T12:13:32;9.50;;;2.87;;
75823;SDS011;64457;51.976;9.834;2023-05-10T12:16:15;8.80;;;2.40;;
75823;SDS011;64457;51.976;9.834;2023-05-10T12:18:44;8.83;;;2.00;;
75823;SDS011;64457;51.976;9.834;2023-05-10T12:21:12;10.20;;;2.40;;
75823;SDS011;64457;51.976;9.834;2023-05-10T12:23:41;8.73;;;2.60;;
75823;SDS011;64457;51.976;9.834;2023-05-10T12:26:09;11.63;;;3.07;;
75823;SDS011;64457;51.976;9.834;2023-05-10T12:28:36;9.10;;;2.10;;
75823;SDS011;64457;51.976;9.834;2023-05-10T12:31:05;8.63;;;2.23;;
75823;SDS011;64457;51.976;9.834;2023-05-10T12:33:36;8.87;;;2.10;;
75823;SDS011;64457;51.976;9.834;2023-05-10T12:36:06;9.07;;;1.97;;
75823;SDS011;64457;51.976;9.834;2023-05-10T12:38:35;8.20;;;2.30;;
75823;SDS011;64457;51.976;9.834;2023-05-10T12:41:06;8.03;;;2.30;;
75823;SDS011;64457;51.976;9.834;2023-05-10T12:43:35;7.80;;;2.20;;
75823;SDS011;64457;51.976;9.834;2023-05-10T12:46:04;8.30;;;2.53;;
75823;SDS011;64457;51.976;9.834;2023-05-10T12:48:33;9.67;;;2.27;;
75823;SDS011;64457;51.976;9.834;2023-05-10T12:51:00;7.37;;;1.93;;
75823;SDS011;64457;51.976;9.834;2023-05-10T12:53:28;8.77;;;2.23;;
75823;SDS011;64457;51.976;9.834;2023-05-10T12:55:56;8.07;;;2.40;;
75823;SDS011;64457;51.976;9.834;2023-05-10T12:58:24;7.20;;;2.23;;
75823;SDS011;64457;51.976;9.834;2023-05-10T13:00:52;10.60;;;3.20;;
75823;SDS011;64457;51.976;9.834;2023-05-10T13:03:19;9.50;;;2.40;;
75823;SDS011;64457;51.976;9.834;2023-05-10T13:05:46;9.33;;;2.93;;
75823;SDS011;64457;51.976;9.834;2023-05-10T13:08:13;8.97;;;2.70;;
75823;SDS011;64457;51.976;9.834;2023-05-10T13:10:41;8.47;;;2.90;;
75823;SDS011;64457;51.976;9.834;2023-05-10T13:13:08;11.03;;;2.73;;
75823;SDS011;64457;51.976;9.834;2023-05-10T13:15:37;8.83;;;3.27;;
75823;SDS011;64457;51.976;9.834;2023-05-10T13:18:04;10.80;;;3.83;;
75823;SDS011;64457;51.976;9.834;2023-05-10T13:20:31;9.50;;;3.50;;
75823;SDS011;64457;51.976;9.834;2023-05-10T13:22:58;10.30;;;3.40;;
75823;SDS011;64457;51.976;9.834;2023-05-10T13:25:26;9.03;;;3.23;;
75823;SDS011;64457;51.976;9.834;2023-05-10T13:27:53;9.40;;;3.47;;
75823;SDS011;64457;51.976;9.834;2023-05-10T13:30:20;11.83;;;3.60;;
75823;SDS011;64457;51.976;9.834;2023-05-10T13:32:50;10.63;;;3.47;;
75823;SDS011;64457;51.976;9.834;2023-05-10T13:35:17;12.87;;;3.50;;
75823;SDS011;64457;51.976;9.834;2023-05-10T13:37:44;9.43;;;3.10;;
75823;SDS011;64457;51.976;9.834;2023-05-10T13:40:12;9.13;;;3.03;;
75823;SDS011;64457;51.976;9.834;2023-05-10T13:42:40;8.70;;;3.10;;
75823;SDS011;64457;51.976;9.834;2023-05-10T13:45:08;14.07;;;4.00;;
75823;SDS011;64457;51.976;9.834;2023-05-10T13:47:37;9.83;;;3.80;;
75823;SDS011;64457;51.976;9.834;2023-05-10T13:50:06;9.03;;;3.23;;
75823;SDS011;64457;51.976;9.834;2023-05-10T13:52:34;9.57;;;3.47;;
75823;SDS011;64457;51.976;9.834;2023-05-10T13:55:01;10.37;;;3.30;;
75823;SDS011;64457;51.976;9.834;2023-05-10T13:57:29;10.47;;;3.53;;
75823;SDS011;64457;51.976;9.834;2023-05-10T13:59:56;11.27;;;3.50;;
75823;SDS011;64457;51.976;9.834;2023-05-10T14:02:24;9.00;;;3.77;;
75823;SDS011;64457;51.976;9.834;2023-05-10T14:04:52;10.70;;;4.13;;
75823;SDS011;64457;51.976;9.834;2023-05-10T14:07:21;11.20;;;3.80;;
75823;SDS011;64457;51.976;9.834;2023-05-10T14:09:48;9.47;;;3.37;;
75823;SDS011;64457;51.976;9.834;2023-05-10T14:12:15;10.27;;;3.80;;
75823;SDS011;64457;51.976;9.834;2023-05-10T14:14:42;9.13;;;3.50;;
75823;SDS011;64457;51.976;9.834;2023-05-10T14:17:10;10.60;;;4.00;;
75823;SDS011;64457;51.976;9.834;2023-05-10T14:19:38;11.93;;;4.00;;
75823;SDS011;64457;51.976;9.834;2023-05-10T14:22:07;8.97;;;3.63;;
75823;SDS011;64457;51.976;9.834;2023-05-10T14:24:37;10.70;;;3.40;;
75823;SDS011;64457;51.976;9.834;2023-05-10T14:27:04;9.53;;;3.60;;
75823;SDS011;64457;51.976;9.834;2023-05-10T14:29:32;9.03;;;3.60;;
75823;SDS011;64457;51.976;9.834;2023-05-10T14:31:59;8.37;;;3.33;;
75823;SDS011;64457;51.976;9.834;2023-05-10T14:34:26;11.63;;;3.60;;
75823;SDS011;64457;51.976;9.834;2023-05-10T14:36:53;8.50;;;3.10;;
75823;SDS011;64457;51.976;9.834;2023-05-10T14:39:21;10.77;;;3.30;;
75823;SDS011;64457;51.976;9.834;2023-05-10T14:41:50;11.47;;;2.80;;
75823;SDS011;64457;51.976;9.834;2023-05-10T14:44:17;10.23;;;3.00;;
75823;SDS011;64457;51.976;9.834;2023-05-10T14:46:45;9.60;;;3.00;;
75823;SDS011;64457;51.976;9.834;2023-05-10T14:49:13;8.63;;;3.10;;
75823;SDS011;64457;51.976;9.834;2023-05-10T14:51:40;9.57;;;3.33;;
75823;SDS011;64457;51.976;9.834;2023-05-10T14:54:07;11.07;;;3.10;;
75823;SDS011;64457;51.976;9.834;2023-05-10T14:56:34;9.37;;;2.80;;
75823;SDS011;64457;51.976;9.834;2023-05-10T14:59:04;9.77;;;3.57;;